createdAt,value
2018-02-20T21:44:24.364Z,-0.83
2018-02-20T21:46:54.068Z,-0.86
2018-02-20T21:52:16.889Z,-0.81
2018-02-20T21:54:48.471Z,-0.82
2018-02-20T21:57:19.322Z,-0.80
2018-02-20T21:59:51.030Z,-0.80
2018-02-20T22:02:22.429Z,-0.74
2018-02-20T22:04:53.525Z,-0.76
2018-02-20T22:07:24.829Z,-0.74
2018-02-20T22:09:57.169Z,-0.61
2018-02-20T22:12:29.085Z,-0.63
2018-02-20T22:14:59.973Z,-0.76
2018-02-20T22:17:38.401Z,-0.81
2018-02-20T22:20:10.081Z,-0.76
2018-02-20T22:22:41.254Z,-0.61
2018-02-20T22:25:12.717Z,-0.78
2018-02-20T22:27:43.875Z,-0.75
2018-02-20T22:30:15.561Z,-0.75
2018-02-20T22:32:47.140Z,-0.76
2018-02-20T22:35:18.342Z,-0.92
2018-02-20T22:37:49.198Z,-0.87
2018-02-20T22:40:20.992Z,-0.80
2018-02-20T22:42:52.329Z,-0.80
2018-02-20T22:45:23.118Z,-0.89
2018-02-20T22:47:57.148Z,-1.03
2018-02-20T22:50:29.201Z,-0.49
2018-02-20T22:53:00.077Z,-1.16
2018-02-20T22:55:30.905Z,-1.24
2018-02-20T22:58:01.801Z,-1.41
2018-02-20T23:00:33.493Z,-1.45
2018-02-20T23:03:04.761Z,-1.57
2018-02-20T23:05:37.034Z,-1.55
2018-02-20T23:08:08.941Z,-1.65
2018-02-20T23:10:40.477Z,-1.69
2018-02-20T23:13:11.325Z,-1.78
2018-02-20T23:15:42.580Z,-1.79
2018-02-20T23:18:14.329Z,-1.83
2018-02-20T23:20:45.554Z,-1.77
2018-02-20T23:23:16.447Z,-1.80
2018-02-20T23:25:47.999Z,-1.83
2018-02-20T23:28:19.941Z,-1.87
2018-02-20T23:30:51.607Z,-1.92
2018-02-20T23:33:22.801Z,-1.96
2018-02-20T23:35:53.840Z,-1.92
2018-02-20T23:38:25.386Z,-1.72
2018-02-20T23:40:56.257Z,-1.74
2018-02-20T23:43:27.109Z,-1.86
2018-02-20T23:45:58.824Z,-1.80
2018-02-20T23:48:29.701Z,-1.92
2018-02-20T23:51:04.307Z,-2.07
2018-02-20T23:53:35.421Z,-2.21
2018-02-20T23:56:06.252Z,-2.47
2018-02-20T23:58:37.068Z,-2.52
